Welcome to our new website - Welkom op onze vernieuwde website
Check our progress frequently. Contoleer regelmatig onze weerberichten

This is an optional block. Switch it on/off in your settings-file: $SITE['bannerTop'] = false; or $SITE['bannerBottom'] = false;

You can display ads, any other important text or photo’s using text / html or PHP code.

You can place one or more at the top and or bottom and it can all be different for content / size .

16:39 23-6-2020


My webcam  My webcam


Bezoek ook deze websites:

Template documentation
and downloads

And another site



METAR rapporten vliegvelden

   
EHVK - Volkel Rnlafb, Netherlands
Afstand tot: ZW 18 km
Gewijzigd: 22-05-2022 21:25
Bewolking  
Bewolking  
   Wind: ONO 7.4 km/h
Wind: ONO 7.4 km/h
Temperatuur: 18°C
Dauwpunt: 11°C
Vochtigheid: 64%
Barometer: 1010 hPa
Bewolking: Bewolking
Zicht: meer dan 10 km
Bewolking: Bewolking 19000 ft
EHVK 221925Z AUTO 06004KT 9999 OVC190 18/11 Q1010 BLU
EDLV - Niederrhein, Germany
Afstand tot: ZO 25 km
Gewijzigd: 22-05-2022 21:50
Helder  
Helder  
   Wind: varieert 3.7 km/h
Wind: varieert 3.7 km/h
Temperatuur: 19°C
Dauwpunt: 10°C
Vochtigheid: 56%
Barometer: 1010 hPa
Zicht: meer dan 10 km
Bewolking: Helder
EDLV 221950Z VRB02KT CAVOK 19/10 Q1010
EHDL - Deelen Rnlafb, Netherlands
Afstand tot: N 35 km
Gewijzigd: 22-05-2022 21:25
Bewolking  
Bewolking  
   Wind: ONO 7.4 km/h
Wind: ONO 7.4 km/h
Temperatuur: 17°C
Dauwpunt: 10°C
Vochtigheid: 64%
Barometer: 1011 hPa
Bewolking: Bewolking
Zicht: meer dan 10 km
Bewolking: Licht bewolkt 9800 ft,
Bewolking 22000 ft
EHDL 221925Z AUTO 07004KT 360V110 9999 FEW098 OVC220 17/10 Q1011 BLU
EHEH - Eindhoven Rnlafb, Netherlands
Afstand tot: ZW 48 km
Gewijzigd: 22-05-2022 21:25
Bewolking  
Bewolking  
   Wind: Oosten 7.4 km/h
Wind: Oosten 7.4 km/h
Temperatuur: 20°C
Dauwpunt: 10°C
Vochtigheid: 53%
Barometer: 1010 hPa
Bewolking: Bewolking
Zicht: meer dan 10 km
Bewolking: Bewolking 16000 ft
EHEH 221925Z AUTO 08004KT 050V200 9999 OVC160 20/10 Q1010 BLU NOSIG
EHGR - Gilze-Rijen Rnla, Netherlands
Afstand tot: WZW 70 km
Gewijzigd: 22-05-2022 21:25
  
  
   Wind: varieert 3.7 km/h
Wind: varieert 3.7 km/h
Temperatuur: 19°C
Dauwpunt: 11°C
Vochtigheid: 60%
Barometer: 1010 hPa
Zicht: meer dan 10 km
EHGR 221925Z AUTO VRB02KT 9999 ////// 19/11 Q1010 BLU
EBBL - Kleine-Brogel(Ba, Belgium
Afstand tot: ZZW 71 km
Gewijzigd: 22-05-2022 21:39
Grotendeels bewolkt  
Grotendeels bewolkt  
   Wind: varieert 1.9 km/h
Wind: varieert 1.9 km/h
Temperatuur: 19°C
Dauwpunt: 9°C
Vochtigheid: 52%
Barometer: 1010 hPa
Bewolking: Grotendeels bewolkt
Zicht: 1 km
Bewolking: Grotendeels bewolkt 11000 ft,
Grotendeels bewolkt 18000 ft
EBBL 221939Z AUTO VRB01KT 1400 BKN110/// BKN180/// 19/09 Q1010 AMB

Script ontwikkeld door  Saratoga-weather.org Aangepast voor de template door  Weerstation Leuven

U vindt ons ook hier:

Weather Underground

Benelux Weer Netwerk

AWEKAS

Apparatuur in gebruik:

Weerstation
Davis VP2

Weerprogramma
Weather Display

Weercomputer
Asrock D1800B

Webleverancier
Vimexx

Davis VP2

Weather Display

Asrock D1800B

Vimexx


This is an optional block. Switch it on/off in your settings-file: $SITE['bannerTop'] = false; or $SITE['bannerBottom'] = false;

You can display ads, any other important text or photo’s using text / html or PHP code.

You can place one or more at the top and or bottom and it can all be different for content / size .

16:39 23-6-2020